sensor_id;sensor_type;location;lat;lon;timestamp;P1;durP1;ratioP1;P2;durP2;ratioP2
19727;SDS011;10015;52.530;13.390;2023-07-22T00:01:48;3.80;;;3.40;;
19727;SDS011;10015;52.530;13.390;2023-07-22T00:04:14;4.13;;;3.37;;
19727;SDS011;10015;52.530;13.390;2023-07-22T00:06:40;3.73;;;3.00;;
19727;SDS011;10015;52.530;13.390;2023-07-22T00:09:06;4.73;;;3.30;;
19727;SDS011;10015;52.530;13.390;2023-07-22T00:11:32;5.47;;;3.33;;
19727;SDS011;10015;52.530;13.390;2023-07-22T00:13:58;3.77;;;3.13;;
19727;SDS011;10015;52.530;13.390;2023-07-22T00:16:24;4.10;;;3.00;;
19727;SDS011;10015;52.530;13.390;2023-07-22T00:18:50;4.40;;;3.10;;
19727;SDS011;10015;52.530;13.390;2023-07-22T00:21:16;5.00;;;3.30;;
19727;SDS011;10015;52.530;13.390;2023-07-22T00:23:43;5.60;;;3.17;;
19727;SDS011;10015;52.530;13.390;2023-07-22T00:26:11;4.20;;;3.23;;
19727;SDS011;10015;52.530;13.390;2023-07-22T00:28:37;4.43;;;3.20;;
19727;SDS011;10015;52.530;13.390;2023-07-22T00:31:03;5.90;;;3.40;;
19727;SDS011;10015;52.530;13.390;2023-07-22T00:33:29;3.70;;;3.30;;
19727;SDS011;10015;52.530;13.390;2023-07-22T00:35:55;4.80;;;3.60;;
19727;SDS011;10015;52.530;13.390;2023-07-22T00:38:21;4.17;;;3.37;;
19727;SDS011;10015;52.530;13.390;2023-07-22T00:40:48;3.30;;;3.00;;
19727;SDS011;10015;52.530;13.390;2023-07-22T00:43:14;4.23;;;3.60;;
19727;SDS011;10015;52.530;13.390;2023-07-22T00:45:40;4.30;;;3.33;;
19727;SDS011;10015;52.530;13.390;2023-07-22T00:48:06;3.73;;;3.37;;
19727;SDS011;10015;52.530;13.390;2023-07-22T00:50:34;4.70;;;3.30;;
19727;SDS011;10015;52.530;13.390;2023-07-22T00:53:01;5.17;;;3.50;;
19727;SDS011;10015;52.530;13.390;2023-07-22T00:55:27;4.73;;;3.70;;
19727;SDS011;10015;52.530;13.390;2023-07-22T00:57:54;4.23;;;3.10;;
19727;SDS011;10015;52.530;13.390;2023-07-22T01:00:21;4.30;;;3.27;;
19727;SDS011;10015;52.530;13.390;2023-07-22T01:02:47;4.13;;;3.17;;
19727;SDS011;10015;52.530;13.390;2023-07-22T01:05:13;6.13;;;3.07;;
19727;SDS011;10015;52.530;13.390;2023-07-22T01:07:39;3.77;;;3.20;;
19727;SDS011;10015;52.530;13.390;2023-07-22T01:10:05;3.60;;;3.30;;
19727;SDS011;10015;52.530;13.390;2023-07-22T01:12:32;3.77;;;3.40;;
19727;SDS011;10015;52.530;13.390;2023-07-22T01:14:58;6.63;;;3.67;;
19727;SDS011;10015;52.530;13.390;2023-07-22T01:17:25;4.23;;;3.50;;
19727;SDS011;10015;52.530;13.390;2023-07-22T01:19:52;4.50;;;3.50;;
19727;SDS011;10015;52.530;13.390;2023-07-22T01:22:18;3.70;;;3.27;;
19727;SDS011;10015;52.530;13.390;2023-07-22T01:24:46;4.30;;;3.40;;
19727;SDS011;10015;52.530;13.390;2023-07-22T01:27:12;4.93;;;3.50;;
19727;SDS011;10015;52.530;13.390;2023-07-22T01:29:39;5.63;;;3.50;;
19727;SDS011;10015;52.530;13.390;2023-07-22T01:32:05;5.43;;;3.83;;
19727;SDS011;10015;52.530;13.390;2023-07-22T01:34:31;5.03;;;3.53;;
19727;SDS011;10015;52.530;13.390;2023-07-22T01:36:58;4.23;;;3.60;;
19727;SDS011;10015;52.530;13.390;2023-07-22T01:39:25;4.13;;;3.50;;
19727;SDS011;10015;52.530;13.390;2023-07-22T01:41:53;4.00;;;3.53;;
19727;SDS011;10015;52.530;13.390;2023-07-22T01:44:18;6.20;;;3.83;;
19727;SDS011;10015;52.530;13.390;2023-07-22T01:46:44;6.10;;;4.13;;
19727;SDS011;10015;52.530;13.390;2023-07-22T01:49:11;6.20;;;4.13;;
19727;SDS011;10015;52.530;13.390;2023-07-22T01:51:38;5.10;;;4.00;;
19727;SDS011;10015;52.530;13.390;2023-07-22T01:54:08;5.00;;;4.10;;
19727;SDS011;10015;52.530;13.390;2023-07-22T01:56:38;5.50;;;4.33;;
19727;SDS011;10015;52.530;13.390;2023-07-22T01:59:05;4.53;;;3.97;;
19727;SDS011;10015;52.530;13.390;2023-07-22T02:01:32;4.73;;;3.77;;
19727;SDS011;10015;52.530;13.390;2023-07-22T02:03:58;5.57;;;3.80;;
19727;SDS011;10015;52.530;13.390;2023-07-22T02:06:24;6.40;;;3.77;;
19727;SDS011;10015;52.530;13.390;2023-07-22T02:08:51;5.37;;;3.77;;
19727;SDS011;10015;52.530;13.390;2023-07-22T02:11:17;5.43;;;3.90;;
19727;SDS011;10015;52.530;13.390;2023-07-22T02:13:43;5.30;;;3.87;;
19727;SDS011;10015;52.530;13.390;2023-07-22T02:16:09;6.57;;;4.00;;
19727;SDS011;10015;52.530;13.390;2023-07-22T02:18:38;9.13;;;4.27;;
19727;SDS011;10015;52.530;13.390;2023-07-22T02:21:05;5.07;;;3.97;;
19727;SDS011;10015;52.530;13.390;2023-07-22T02:23:31;7.23;;;4.57;;
19727;SDS011;10015;52.530;13.390;2023-07-22T02:25:57;3.73;;;3.30;;
19727;SDS011;10015;52.530;13.390;2023-07-22T02:28:22;4.80;;;3.97;;
19727;SDS011;10015;52.530;13.390;2023-07-22T02:30:50;4.23;;;3.67;;
19727;SDS011;10015;52.530;13.390;2023-07-22T02:33:18;4.10;;;3.70;;
19727;SDS011;10015;52.530;13.390;2023-07-22T02:35:45;6.33;;;3.30;;
19727;SDS011;10015;52.530;13.390;2023-07-22T02:38:12;5.47;;;3.63;;
19727;SDS011;10015;52.530;13.390;2023-07-22T02:40:39;6.13;;;3.40;;
19727;SDS011;10015;52.530;13.390;2023-07-22T02:43:05;6.47;;;3.40;;
19727;SDS011;10015;52.530;13.390;2023-07-22T02:45:32;4.17;;;3.43;;
19727;SDS011;10015;52.530;13.390;2023-07-22T02:47:59;3.60;;;3.07;;
19727;SDS011;10015;52.530;13.390;2023-07-22T02:50:25;4.27;;;3.07;;
19727;SDS011;10015;52.530;13.390;2023-07-22T02:52:51;3.13;;;2.83;;
19727;SDS011;10015;52.530;13.390;2023-07-22T02:55:17;6.07;;;3.27;;
19727;SDS011;10015;52.530;13.390;2023-07-22T02:57:44;4.57;;;2.77;;
19727;SDS011;10015;52.530;13.390;2023-07-22T03:00:14;3.20;;;2.90;;
19727;SDS011;10015;52.530;13.390;2023-07-22T03:02:53;3.10;;;2.60;;
19727;SDS011;10015;52.530;13.390;2023-07-22T03:05:26;4.40;;;3.27;;
19727;SDS011;10015;52.530;13.390;2023-07-22T03:07:53;3.83;;;3.00;;
19727;SDS011;10015;52.530;13.390;2023-07-22T03:10:19;3.53;;;2.87;;
19727;SDS011;10015;52.530;13.390;2023-07-22T03:12:46;3.97;;;2.87;;
19727;SDS011;10015;52.530;13.390;2023-07-22T03:15:12;4.00;;;2.77;;
19727;SDS011;10015;52.530;13.390;2023-07-22T03:17:39;3.30;;;2.77;;
19727;SDS011;10015;52.530;13.390;2023-07-22T03:20:08;2.80;;;2.50;;
19727;SDS011;10015;52.530;13.390;2023-07-22T03:22:42;3.47;;;2.93;;
19727;SDS011;10015;52.530;13.390;2023-07-22T03:25:13;3.87;;;3.00;;
19727;SDS011;10015;52.530;13.390;2023-07-22T03:27:39;3.77;;;2.67;;
19727;SDS011;10015;52.530;13.390;2023-07-22T03:30:06;3.77;;;2.90;;
19727;SDS011;10015;52.530;13.390;2023-07-22T03:32:33;4.60;;;2.70;;
19727;SDS011;10015;52.530;13.390;2023-07-22T03:35:00;3.60;;;2.70;;
19727;SDS011;10015;52.530;13.390;2023-07-22T03:37:27;4.03;;;2.87;;
19727;SDS011;10015;52.530;13.390;2023-07-22T03:39:54;5.10;;;2.63;;
19727;SDS011;10015;52.530;13.390;2023-07-22T03:42:20;3.60;;;2.93;;
19727;SDS011;10015;52.530;13.390;2023-07-22T03:44:46;3.47;;;2.70;;
19727;SDS011;10015;52.530;13.390;2023-07-22T03:47:12;5.37;;;3.27;;
19727;SDS011;10015;52.530;13.390;2023-07-22T03:49:38;4.57;;;2.90;;
19727;SDS011;10015;52.530;13.390;2023-07-22T03:52:04;3.10;;;2.60;;
19727;SDS011;10015;52.530;13.390;2023-07-22T03:54:30;4.87;;;3.00;;
19727;SDS011;10015;52.530;13.390;2023-07-22T03:56:56;6.83;;;3.40;;
19727;SDS011;10015;52.530;13.390;2023-07-22T03:59:22;3.70;;;3.20;;
19727;SDS011;10015;52.530;13.390;2023-07-22T04:01:48;7.37;;;3.47;;
19727;SDS011;10015;52.530;13.390;2023-07-22T04:04:14;5.53;;;3.20;;
19727;SDS011;10015;52.530;13.390;2023-07-22T04:06:40;4.10;;;3.10;;
19727;SDS011;10015;52.530;13.390;2023-07-22T04:09:06;3.73;;;3.10;;
19727;SDS011;10015;52.530;13.390;2023-07-22T04:11:32;3.90;;;2.97;;
19727;SDS011;10015;52.530;13.390;2023-07-22T04:13:58;4.33;;;3.17;;
19727;SDS011;10015;52.530;13.390;2023-07-22T04:16:24;4.80;;;3.20;;
19727;SDS011;10015;52.530;13.390;2023-07-22T04:18:50;2.83;;;2.60;;
19727;SDS011;10015;52.530;13.390;2023-07-22T04:21:16;5.20;;;3.07;;
19727;SDS011;10015;52.530;13.390;2023-07-22T04:23:42;3.60;;;2.90;;
19727;SDS011;10015;52.530;13.390;2023-07-22T04:26:08;5.50;;;3.10;;
19727;SDS011;10015;52.530;13.390;2023-07-22T04:28:34;5.23;;;3.27;;
19727;SDS011;10015;52.530;13.390;2023-07-22T04:31:00;4.53;;;2.90;;
19727;SDS011;10015;52.530;13.390;2023-07-22T04:33:26;7.67;;;3.17;;
19727;SDS011;10015;52.530;13.390;2023-07-22T04:35:53;4.30;;;2.80;;
19727;SDS011;10015;52.530;13.390;2023-07-22T04:38:21;3.87;;;2.97;;
19727;SDS011;10015;52.530;13.390;2023-07-22T04:40:47;3.30;;;2.63;;
19727;SDS011;10015;52.530;13.390;2023-07-22T04:43:13;3.33;;;2.57;;
19727;SDS011;10015;52.530;13.390;2023-07-22T04:45:39;5.40;;;2.50;;
19727;SDS011;10015;52.530;13.390;2023-07-22T04:48:07;4.70;;;3.13;;
19727;SDS011;10015;52.530;13.390;2023-07-22T04:50:33;3.87;;;2.83;;
19727;SDS011;10015;52.530;13.390;2023-07-22T04:52:59;4.00;;;2.60;;
19727;SDS011;10015;52.530;13.390;2023-07-22T04:55:25;3.67;;;2.87;;
19727;SDS011;10015;52.530;13.390;2023-07-22T04:57:55;5.30;;;3.20;;
19727;SDS011;10015;52.530;13.390;2023-07-22T05:00:21;4.10;;;2.70;;
19727;SDS011;10015;52.530;13.390;2023-07-22T05:02:47;4.20;;;2.97;;
19727;SDS011;10015;52.530;13.390;2023-07-22T05:05:13;4.80;;;3.03;;
19727;SDS011;10015;52.530;13.390;2023-07-22T05:07:40;5.83;;;3.27;;
19727;SDS011;10015;52.530;13.390;2023-07-22T05:10:06;5.40;;;3.33;;
19727;SDS011;10015;52.530;13.390;2023-07-22T05:12:37;4.13;;;2.97;;
19727;SDS011;10015;52.530;13.390;2023-07-22T05:15:04;4.40;;;3.20;;
19727;SDS011;10015;52.530;13.390;2023-07-22T05:17:31;5.13;;;3.23;;
19727;SDS011;10015;52.530;13.390;2023-07-22T05:19:57;4.83;;;3.40;;
19727;SDS011;10015;52.530;13.390;2023-07-22T05:22:24;7.40;;;3.33;;
19727;SDS011;10015;52.530;13.390;2023-07-22T05:24:50;8.83;;;3.57;;
19727;SDS011;10015;52.530;13.390;2023-07-22T05:27:16;5.43;;;3.17;;
19727;SDS011;10015;52.530;13.390;2023-07-22T05:29:43;4.93;;;3.27;;
19727;SDS011;10015;52.530;13.390;2023-07-22T05:32:10;6.53;;;3.93;;
19727;SDS011;10015;52.530;13.390;2023-07-22T05:34:36;5.87;;;3.80;;
19727;SDS011;10015;52.530;13.390;2023-07-22T05:37:02;6.73;;;4.10;;
19727;SDS011;10015;52.530;13.390;2023-07-22T05:39:28;5.73;;;3.53;;
19727;SDS011;10015;52.530;13.390;2023-07-22T05:41:54;7.43;;;3.83;;
19727;SDS011;10015;52.530;13.390;2023-07-22T05:44:21;6.33;;;3.87;;
19727;SDS011;10015;52.530;13.390;2023-07-22T05:46:47;7.23;;;3.70;;
19727;SDS011;10015;52.530;13.390;2023-07-22T05:49:13;6.63;;;3.70;;
19727;SDS011;10015;52.530;13.390;2023-07-22T05:51:39;5.20;;;3.87;;
19727;SDS011;10015;52.530;13.390;2023-07-22T05:54:05;6.40;;;4.20;;
19727;SDS011;10015;52.530;13.390;2023-07-22T05:56:31;5.87;;;4.07;;
19727;SDS011;10015;52.530;13.390;2023-07-22T05:58:57;5.70;;;3.80;;
19727;SDS011;10015;52.530;13.390;2023-07-22T06:01:23;9.93;;;4.70;;
19727;SDS011;10015;52.530;13.390;2023-07-22T06:03:52;8.13;;;4.40;;
19727;SDS011;10015;52.530;13.390;2023-07-22T06:06:18;9.63;;;4.97;;
19727;SDS011;10015;52.530;13.390;2023-07-22T06:08:44;7.77;;;4.43;;
19727;SDS011;10015;52.530;13.390;2023-07-22T06:11:10;9.00;;;4.70;;
19727;SDS011;10015;52.530;13.390;2023-07-22T06:13:36;7.03;;;4.80;;
19727;SDS011;10015;52.530;13.390;2023-07-22T06:16:02;7.67;;;4.40;;
19727;SDS011;10015;52.530;13.390;2023-07-22T06:18:28;5.63;;;3.90;;
19727;SDS011;10015;52.530;13.390;2023-07-22T06:20:54;8.70;;;4.90;;
19727;SDS011;10015;52.530;13.390;2023-07-22T06:23:20;8.90;;;4.07;;
19727;SDS011;10015;52.530;13.390;2023-07-22T06:25:46;6.80;;;4.40;;
19727;SDS011;10015;52.530;13.390;2023-07-22T06:28:12;7.83;;;4.83;;
19727;SDS011;10015;52.530;13.390;2023-07-22T06:30:38;6.70;;;4.23;;
19727;SDS011;10015;52.530;13.390;2023-07-22T06:33:04;8.63;;;4.00;;
19727;SDS011;10015;52.530;13.390;2023-07-22T06:35:30;6.70;;;4.07;;
19727;SDS011;10015;52.530;13.390;2023-07-22T06:37:56;7.97;;;4.30;;
19727;SDS011;10015;52.530;13.390;2023-07-22T06:40:23;7.43;;;3.77;;
19727;SDS011;10015;52.530;13.390;2023-07-22T06:42:50;6.40;;;3.70;;
19727;SDS011;10015;52.530;13.390;2023-07-22T06:45:16;9.43;;;4.67;;
19727;SDS011;10015;52.530;13.390;2023-07-22T06:47:42;6.10;;;3.73;;
19727;SDS011;10015;52.530;13.390;2023-07-22T06:50:09;7.50;;;3.63;;
19727;SDS011;10015;52.530;13.390;2023-07-22T06:52:35;8.10;;;4.10;;
19727;SDS011;10015;52.530;13.390;2023-07-22T06:55:01;6.93;;;3.92;;
19727;SDS011;10015;52.530;13.390;2023-07-22T06:57:28;10.57;;;3.33;;
19727;SDS011;10015;52.530;13.390;2023-07-22T06:59:55;6.23;;;3.70;;
19727;SDS011;10015;52.530;13.390;2023-07-22T07:02:21;6.10;;;3.37;;
19727;SDS011;10015;52.530;13.390;2023-07-22T07:04:48;6.53;;;3.30;;
19727;SDS011;10015;52.530;13.390;2023-07-22T07:07:15;5.28;;;3.30;;
19727;SDS011;10015;52.530;13.390;2023-07-22T07:09:41;6.33;;;3.20;;
19727;SDS011;10015;52.530;13.390;2023-07-22T07:12:08;7.00;;;3.50;;
19727;SDS011;10015;52.530;13.390;2023-07-22T07:14:34;5.95;;;2.78;;
19727;SDS011;10015;52.530;13.390;2023-07-22T07:17:01;6.65;;;3.28;;
19727;SDS011;10015;52.530;13.390;2023-07-22T07:19:37;8.60;;;3.10;;
19727;SDS011;10015;52.530;13.390;2023-07-22T07:22:03;4.93;;;2.80;;
19727;SDS011;10015;52.530;13.390;2023-07-22T07:24:29;4.87;;;2.93;;
19727;SDS011;10015;52.530;13.390;2023-07-22T07:26:55;6.83;;;3.20;;
19727;SDS011;10015;52.530;13.390;2023-07-22T07:29:21;6.73;;;3.10;;
19727;SDS011;10015;52.530;13.390;2023-07-22T07:31:47;7.87;;;3.10;;
19727;SDS011;10015;52.530;13.390;2023-07-22T07:34:13;4.97;;;2.90;;
19727;SDS011;10015;52.530;13.390;2023-07-22T07:36:39;6.40;;;3.27;;
19727;SDS011;10015;52.530;13.390;2023-07-22T07:39:05;6.00;;;3.03;;
19727;SDS011;10015;52.530;13.390;2023-07-22T07:41:30;5.27;;;3.00;;
19727;SDS011;10015;52.530;13.390;2023-07-22T07:43:56;7.90;;;3.43;;
19727;SDS011;10015;52.530;13.390;2023-07-22T07:46:23;7.37;;;3.23;;
19727;SDS011;10015;52.530;13.390;2023-07-22T07:48:52;9.73;;;3.55;;
19727;SDS011;10015;52.530;13.390;2023-07-22T07:51:22;4.90;;;3.07;;
19727;SDS011;10015;52.530;13.390;2023-07-22T07:53:50;5.75;;;3.30;;
19727;SDS011;10015;52.530;13.390;2023-07-22T07:56:16;6.68;;;3.25;;
19727;SDS011;10015;52.530;13.390;2023-07-22T07:58:43;5.05;;;2.90;;
19727;SDS011;10015;52.530;13.390;2023-07-22T08:01:10;6.85;;;3.45;;
19727;SDS011;10015;52.530;13.390;2023-07-22T08:03:36;7.90;;;3.10;;
19727;SDS011;10015;52.530;13.390;2023-07-22T08:06:03;4.38;;;3.30;;
19727;SDS011;10015;52.530;13.390;2023-07-22T08:08:29;4.28;;;3.13;;
19727;SDS011;10015;52.530;13.390;2023-07-22T08:11:02;5.35;;;3.10;;
19727;SDS011;10015;52.530;13.390;2023-07-22T08:13:39;6.00;;;3.47;;
19727;SDS011;10015;52.530;13.390;2023-07-22T08:16:07;7.20;;;3.28;;
19727;SDS011;10015;52.530;13.390;2023-07-22T08:18:34;6.18;;;3.45;;
19727;SDS011;10015;52.530;13.390;2023-07-22T08:21:01;8.73;;;3.43;;
19727;SDS011;10015;52.530;13.390;2023-07-22T08:23:29;7.90;;;3.40;;
19727;SDS011;10015;52.530;13.390;2023-07-22T08:25:55;5.10;;;3.10;;
19727;SDS011;10015;52.530;13.390;2023-07-22T08:28:24;6.00;;;3.00;;
19727;SDS011;10015;52.530;13.390;2023-07-22T08:30:50;6.70;;;3.60;;
19727;SDS011;10015;52.530;13.390;2023-07-22T08:33:19;5.18;;;3.25;;
19727;SDS011;10015;52.530;13.390;2023-07-22T08:35:45;9.13;;;4.10;;
19727;SDS011;10015;52.530;13.390;2023-07-22T08:38:13;6.83;;;3.33;;
19727;SDS011;10015;52.530;13.390;2023-07-22T08:40:39;8.53;;;3.33;;
19727;SDS011;10015;52.530;13.390;2023-07-22T08:43:07;7.87;;;3.57;;
19727;SDS011;10015;52.530;13.390;2023-07-22T08:45:34;8.00;;;3.53;;
19727;SDS011;10015;52.530;13.390;2023-07-22T08:48:03;7.00;;;3.47;;
19727;SDS011;10015;52.530;13.390;2023-07-22T08:53:14;6.97;;;3.57;;
19727;SDS011;10015;52.530;13.390;2023-07-22T08:55:43;5.67;;;3.00;;
19727;SDS011;10015;52.530;13.390;2023-07-22T08:58:10;6.20;;;3.40;;
19727;SDS011;10015;52.530;13.390;2023-07-22T09:00:39;5.95;;;3.47;;
19727;SDS011;10015;52.530;13.390;2023-07-22T09:03:05;6.20;;;3.30;;
19727;SDS011;10015;52.530;13.390;2023-07-22T09:05:32;5.20;;;3.15;;
19727;SDS011;10015;52.530;13.390;2023-07-22T09:08:01;8.20;;;3.55;;
19727;SDS011;10015;52.530;13.390;2023-07-22T09:10:31;5.32;;;3.38;;
19727;SDS011;10015;52.530;13.390;2023-07-22T09:12:58;6.15;;;3.17;;
19727;SDS011;10015;52.530;13.390;2023-07-22T09:15:25;7.15;;;3.00;;
19727;SDS011;10015;52.530;13.390;2023-07-22T09:17:52;6.63;;;3.63;;
19727;SDS011;10015;52.530;13.390;2023-07-22T09:20:18;6.95;;;3.20;;
19727;SDS011;10015;52.530;13.390;2023-07-22T09:22:46;7.30;;;3.20;;
19727;SDS011;10015;52.530;13.390;2023-07-22T09:25:46;5.03;;;3.05;;
19727;SDS011;10015;52.530;13.390;2023-07-22T09:28:05;5.33;;;2.80;;
19727;SDS011;10015;52.530;13.390;2023-07-22T09:30:35;5.97;;;3.05;;
19727;SDS011;10015;52.530;13.390;2023-07-22T09:33:03;5.60;;;2.97;;
19727;SDS011;10015;52.530;13.390;2023-07-22T09:35:43;3.33;;;2.67;;
19727;SDS011;10015;52.530;13.390;2023-07-22T09:38:10;4.83;;;2.47;;
19727;SDS011;10015;52.530;13.390;2023-07-22T09:40:36;6.93;;;3.20;;
19727;SDS011;10015;52.530;13.390;2023-07-22T09:43:05;4.73;;;3.03;;
19727;SDS011;10015;52.530;13.390;2023-07-22T09:45:34;4.88;;;3.20;;
19727;SDS011;10015;52.530;13.390;2023-07-22T09:48:00;13.90;;;2.87;;
19727;SDS011;10015;52.530;13.390;2023-07-22T09:50:26;5.90;;;2.47;;
19727;SDS011;10015;52.530;13.390;2023-07-22T09:52:53;6.00;;;2.40;;
19727;SDS011;10015;52.530;13.390;2023-07-22T09:55:21;14.75;;;2.40;;
19727;SDS011;10015;52.530;13.390;2023-07-22T09:57:54;6.45;;;2.72;;
19727;SDS011;10015;52.530;13.390;2023-07-22T10:00:23;4.78;;;2.10;;
19727;SDS011;10015;52.530;13.390;2023-07-22T10:02:51;4.22;;;2.20;;
19727;SDS011;10015;52.530;13.390;2023-07-22T10:05:18;6.10;;;2.38;;
19727;SDS011;10015;52.530;13.390;2023-07-22T10:07:50;5.80;;;2.97;;
19727;SDS011;10015;52.530;13.390;2023-07-22T10:10:18;4.53;;;2.22;;
19727;SDS011;10015;52.530;13.390;2023-07-22T10:12:46;5.10;;;2.70;;
19727;SDS011;10015;52.530;13.390;2023-07-22T10:15:14;5.40;;;2.47;;
19727;SDS011;10015;52.530;13.390;2023-07-22T10:17:41;4.00;;;2.28;;
19727;SDS011;10015;52.530;13.390;2023-07-22T10:20:08;4.95;;;2.55;;
19727;SDS011;10015;52.530;13.390;2023-07-22T10:22:44;2.85;;;2.30;;
19727;SDS011;10015;52.530;13.390;2023-07-22T10:25:14;6.40;;;2.70;;
19727;SDS011;10015;52.530;13.390;2023-07-22T10:27:42;6.20;;;2.60;;
19727;SDS011;10015;52.530;13.390;2023-07-22T10:30:09;4.70;;;2.88;;
19727;SDS011;10015;52.530;13.390;2023-07-22T10:32:40;3.08;;;2.47;;
19727;SDS011;10015;52.530;13.390;2023-07-22T10:35:07;2.75;;;2.15;;
19727;SDS011;10015;52.530;13.390;2023-07-22T10:37:38;4.53;;;2.38;;
19727;SDS011;10015;52.530;13.390;2023-07-22T10:40:23;7.43;;;2.45;;
19727;SDS011;10015;52.530;13.390;2023-07-22T10:42:57;3.42;;;2.20;;
19727;SDS011;10015;52.530;13.390;2023-07-22T10:45:30;4.05;;;2.13;;
19727;SDS011;10015;52.530;13.390;2023-07-22T10:53:11;4.13;;;2.50;;
19727;SDS011;10015;52.530;13.390;2023-07-22T10:58:55;3.58;;;2.45;;
19727;SDS011;10015;52.530;13.390;2023-07-22T11:11:59;5.28;;;2.50;;
19727;SDS011;10015;52.530;13.390;2023-07-22T11:14:30;5.38;;;3.10;;
19727;SDS011;10015;52.530;13.390;2023-07-22T11:17:01;4.88;;;2.75;;
19727;SDS011;10015;52.530;13.390;2023-07-22T11:19:33;4.45;;;2.58;;
19727;SDS011;10015;52.530;13.390;2023-07-22T11:21:59;6.40;;;3.13;;
19727;SDS011;10015;52.530;13.390;2023-07-22T11:24:26;8.25;;;3.10;;
19727;SDS011;10015;52.530;13.390;2023-07-22T11:26:53;5.65;;;2.75;;
19727;SDS011;10015;52.530;13.390;2023-07-22T11:29:19;6.47;;;3.38;;
19727;SDS011;10015;52.530;13.390;2023-07-22T11:31:46;6.80;;;3.10;;
19727;SDS011;10015;52.530;13.390;2023-07-22T11:34:14;3.92;;;2.83;;
19727;SDS011;10015;52.530;13.390;2023-07-22T11:36:41;6.60;;;3.38;;
19727;SDS011;10015;52.530;13.390;2023-07-22T11:39:10;5.95;;;2.90;;
19727;SDS011;10015;52.530;13.390;2023-07-22T11:41:39;5.18;;;3.25;;
19727;SDS011;10015;52.530;13.390;2023-07-22T11:44:09;6.18;;;3.47;;
19727;SDS011;10015;52.530;13.390;2023-07-22T11:51:58;6.57;;;3.03;;
19727;SDS011;10015;52.530;13.390;2023-07-22T11:54:28;4.30;;;2.70;;
19727;SDS011;10015;52.530;13.390;2023-07-22T11:56:56;4.97;;;3.22;;
19727;SDS011;10015;52.530;13.390;2023-07-22T11:59:32;5.38;;;3.00;;
19727;SDS011;10015;52.530;13.390;2023-07-22T12:02:02;6.55;;;3.15;;
19727;SDS011;10015;52.530;13.390;2023-07-22T12:04:31;6.82;;;3.30;;
19727;SDS011;10015;52.530;13.390;2023-07-22T12:06:58;5.55;;;3.50;;
19727;SDS011;10015;52.530;13.390;2023-07-22T12:09:25;4.78;;;3.28;;
19727;SDS011;10015;52.530;13.390;2023-07-22T12:11:55;6.55;;;3.40;;
19727;SDS011;10015;52.530;13.390;2023-07-22T12:14:23;7.07;;;3.60;;
19727;SDS011;10015;52.530;13.390;2023-07-22T12:16:54;4.97;;;3.40;;
19727;SDS011;10015;52.530;13.390;2023-07-22T12:19:24;5.95;;;3.50;;
19727;SDS011;10015;52.530;13.390;2023-07-22T12:21:54;5.45;;;3.33;;
19727;SDS011;10015;52.530;13.390;2023-07-22T12:24:20;4.18;;;3.00;;
19727;SDS011;10015;52.530;13.390;2023-07-22T12:26:45;4.55;;;3.00;;
19727;SDS011;10015;52.530;13.390;2023-07-22T12:29:11;4.07;;;2.70;;
19727;SDS011;10015;52.530;13.390;2023-07-22T12:31:37;4.57;;;2.90;;
19727;SDS011;10015;52.530;13.390;2023-07-22T12:34:03;5.03;;;3.10;;
19727;SDS011;10015;52.530;13.390;2023-07-22T12:36:29;4.75;;;3.10;;
19727;SDS011;10015;52.530;13.390;2023-07-22T12:38:55;5.15;;;3.15;;
19727;SDS011;10015;52.530;13.390;2023-07-22T12:41:21;5.45;;;3.55;;
19727;SDS011;10015;52.530;13.390;2023-07-22T12:43:47;4.90;;;3.20;;
19727;SDS011;10015;52.530;13.390;2023-07-22T12:46:14;6.82;;;3.60;;
19727;SDS011;10015;52.530;13.390;2023-07-22T12:48:40;7.97;;;3.40;;
19727;SDS011;10015;52.530;13.390;2023-07-22T12:51:06;6.80;;;3.28;;
19727;SDS011;10015;52.530;13.390;2023-07-22T12:53:32;5.80;;;3.53;;
19727;SDS011;10015;52.530;13.390;2023-07-22T12:55:58;4.72;;;3.53;;
19727;SDS011;10015;52.530;13.390;2023-07-22T12:58:24;5.45;;;3.80;;
19727;SDS011;10015;52.530;13.390;2023-07-22T13:00:50;4.68;;;3.40;;
19727;SDS011;10015;52.530;13.390;2023-07-22T13:03:15;5.55;;;3.15;;
19727;SDS011;10015;52.530;13.390;2023-07-22T13:05:41;6.10;;;3.72;;
19727;SDS011;10015;52.530;13.390;2023-07-22T13:08:07;6.55;;;3.55;;
19727;SDS011;10015;52.530;13.390;2023-07-22T13:10:33;4.35;;;3.15;;
19727;SDS011;10015;52.530;13.390;2023-07-22T13:13:02;5.07;;;3.47;;
19727;SDS011;10015;52.530;13.390;2023-07-22T13:15:29;4.93;;;3.33;;
19727;SDS011;10015;52.530;13.390;2023-07-22T13:17:54;5.22;;;3.40;;
19727;SDS011;10015;52.530;13.390;2023-07-22T13:20:20;7.25;;;3.53;;
19727;SDS011;10015;52.530;13.390;2023-07-22T13:22:46;6.05;;;3.20;;
19727;SDS011;10015;52.530;13.390;2023-07-22T13:25:12;6.35;;;3.60;;
19727;SDS011;10015;52.530;13.390;2023-07-22T13:27:38;5.72;;;3.63;;
19727;SDS011;10015;52.530;13.390;2023-07-22T13:30:09;3.97;;;3.20;;
19727;SDS011;10015;52.530;13.390;2023-07-22T13:32:35;4.85;;;3.55;;
19727;SDS011;10015;52.530;13.390;2023-07-22T13:35:01;6.65;;;3.40;;
19727;SDS011;10015;52.530;13.390;2023-07-22T13:37:29;4.43;;;3.00;;
19727;SDS011;10015;52.530;13.390;2023-07-22T13:39:55;6.95;;;3.65;;
19727;SDS011;10015;52.530;13.390;2023-07-22T13:42:23;5.40;;;3.28;;
19727;SDS011;10015;52.530;13.390;2023-07-22T13:44:49;5.07;;;3.40;;
19727;SDS011;10015;52.530;13.390;2023-07-22T13:47:15;5.45;;;3.50;;
19727;SDS011;10015;52.530;13.390;2023-07-22T13:49:41;6.18;;;3.30;;
19727;SDS011;10015;52.530;13.390;2023-07-22T13:52:07;4.32;;;3.13;;
19727;SDS011;10015;52.530;13.390;2023-07-22T13:54:33;5.45;;;3.22;;
19727;SDS011;10015;52.530;13.390;2023-07-22T13:56:59;4.40;;;3.30;;
19727;SDS011;10015;52.530;13.390;2023-07-22T13:59:25;4.85;;;2.83;;
19727;SDS011;10015;52.530;13.390;2023-07-22T14:01:51;5.30;;;3.67;;
19727;SDS011;10015;52.530;13.390;2023-07-22T14:04:17;5.07;;;3.58;;
19727;SDS011;10015;52.530;13.390;2023-07-22T14:06:42;6.80;;;3.45;;
19727;SDS011;10015;52.530;13.390;2023-07-22T14:09:08;4.55;;;3.25;;
19727;SDS011;10015;52.530;13.390;2023-07-22T14:11:37;5.40;;;3.40;;
19727;SDS011;10015;52.530;13.390;2023-07-22T14:14:48;5.55;;;3.30;;
19727;SDS011;10015;52.530;13.390;2023-07-22T14:17:14;5.28;;;3.38;;
19727;SDS011;10015;52.530;13.390;2023-07-22T14:19:40;5.63;;;3.30;;
19727;SDS011;10015;52.530;13.390;2023-07-22T14:22:07;4.28;;;3.42;;
19727;SDS011;10015;52.530;13.390;2023-07-22T14:24:33;5.22;;;3.60;;
19727;SDS011;10015;52.530;13.390;2023-07-22T14:26:59;4.72;;;3.20;;
19727;SDS011;10015;52.530;13.390;2023-07-22T14:29:25;5.03;;;3.42;;
19727;SDS011;10015;52.530;13.390;2023-07-22T14:31:51;4.95;;;3.67;;
19727;SDS011;10015;52.530;13.390;2023-07-22T14:34:17;5.93;;;3.45;;
19727;SDS011;10015;52.530;13.390;2023-07-22T14:36:43;4.60;;;3.20;;
19727;SDS011;10015;52.530;13.390;2023-07-22T14:39:09;4.30;;;3.15;;
19727;SDS011;10015;52.530;13.390;2023-07-22T14:41:35;3.40;;;2.83;;
19727;SDS011;10015;52.530;13.390;2023-07-22T14:44:01;5.93;;;3.63;;
19727;SDS011;10015;52.530;13.390;2023-07-22T14:46:30;5.18;;;3.75;;
19727;SDS011;10015;52.530;13.390;2023-07-22T14:48:56;3.95;;;3.00;;
19727;SDS011;10015;52.530;13.390;2023-07-22T14:51:22;5.63;;;3.47;;
19727;SDS011;10015;52.530;13.390;2023-07-22T14:53:48;6.18;;;3.67;;
19727;SDS011;10015;52.530;13.390;2023-07-22T14:56:14;4.47;;;3.38;;
19727;SDS011;10015;52.530;13.390;2023-07-22T14:58:40;5.43;;;3.75;;
19727;SDS011;10015;52.530;13.390;2023-07-22T15:01:07;5.18;;;3.70;;